createdAt,value
2018-12-13T00:00:31.982Z,81.10
2018-12-13T00:02:59.446Z,81.10
2018-12-13T00:05:26.975Z,81.10
2018-12-13T00:07:54.446Z,81.00
2018-12-13T00:10:21.920Z,81.10
2018-12-13T00:12:49.380Z,81.10
2018-12-13T00:15:18.851Z,81.20
2018-12-13T00:17:46.312Z,81.30
2018-12-13T00:20:13.795Z,81.30
2018-12-13T00:22:41.249Z,81.40
2018-12-13T00:25:08.705Z,81.30
2018-12-13T00:27:36.183Z,81.10
2018-12-13T00:30:04.859Z,81.20
2018-12-13T00:32:32.314Z,81.30
2018-12-13T00:34:59.776Z,81.50
2018-12-13T00:37:27.260Z,81.60
2018-12-13T00:39:54.737Z,81.60
2018-12-13T00:42:22.203Z,81.60
2018-12-13T00:44:49.643Z,81.60
2018-12-13T00:47:17.091Z,81.70
2018-12-13T00:49:44.595Z,81.40
2018-12-13T00:52:12.077Z,81.70
2018-12-13T00:54:39.531Z,81.70
2018-12-13T00:57:06.979Z,81.70
2018-12-13T00:59:34.432Z,81.70
2018-12-13T01:02:01.898Z,81.70
2018-12-13T01:04:29.370Z,81.60
2018-12-13T01:06:56.812Z,81.70
2018-12-13T01:09:24.282Z,81.60
2018-12-13T01:11:51.742Z,81.50
2018-12-13T01:14:19.186Z,81.50
2018-12-13T01:16:46.651Z,81.60
2018-12-13T01:19:14.108Z,81.60
2018-12-13T01:21:41.563Z,81.60
2018-12-13T01:24:09.012Z,81.70
2018-12-13T01:26:36.460Z,81.50
2018-12-13T01:29:03.974Z,81.60
2018-12-13T01:31:31.412Z,81.50
2018-12-13T01:33:58.862Z,81.40
2018-12-13T01:36:26.327Z,81.50
2018-12-13T01:38:53.779Z,81.00
2018-12-13T01:41:21.231Z,81.30
2018-12-13T01:43:48.681Z,81.20
2018-12-13T01:46:16.138Z,81.30
2018-12-13T01:48:43.576Z,81.20
2018-12-13T01:51:11.083Z,81.20
2018-12-13T01:53:38.614Z,81.30
2018-12-13T01:56:06.051Z,81.30
2018-12-13T01:58:33.513Z,81.20
2018-12-13T02:01:00.950Z,80.90
2018-12-13T02:03:28.409Z,81.10
2018-12-13T02:05:55.873Z,81.10
2018-12-13T02:08:23.338Z,81.10
2018-12-13T02:10:50.787Z,80.20
2018-12-13T02:13:18.249Z,81.10
2018-12-13T02:15:45.777Z,80.60
2018-12-13T02:18:13.228Z,80.80
2018-12-13T02:20:40.688Z,80.70
2018-12-13T02:23:08.185Z,80.90
2018-12-13T02:25:35.637Z,79.90
2018-12-13T02:28:03.127Z,80.90
2018-12-13T02:30:30.647Z,81.10
2018-12-13T02:32:58.164Z,81.20
2018-12-13T02:35:25.631Z,80.90
2018-12-13T02:37:53.072Z,81.10
2018-12-13T02:40:20.518Z,81.00
2018-12-13T02:42:48.039Z,81.20
2018-12-13T02:45:15.537Z,80.40
2018-12-13T02:47:43.008Z,81.30
2018-12-13T02:50:10.452Z,81.20
2018-12-13T02:52:37.915Z,81.30
2018-12-13T02:55:05.455Z,81.50
2018-12-13T02:57:32.920Z,81.20
2018-12-13T03:00:00.381Z,81.10
2018-12-13T03:02:28.034Z,80.10
2018-12-13T03:04:55.466Z,81.10
2018-12-13T03:07:22.953Z,81.30
2018-12-13T03:09:50.387Z,81.30
2018-12-13T03:12:17.908Z,81.00
2018-12-13T03:14:45.419Z,81.20
2018-12-13T03:17:12.862Z,80.00
2018-12-13T03:19:40.348Z,81.00
2018-12-13T03:22:07.803Z,81.20
2018-12-13T03:24:35.242Z,81.20
2018-12-13T03:27:02.703Z,81.30
2018-12-13T03:29:30.143Z,80.80
2018-12-13T03:31:57.623Z,80.80
2018-12-13T03:34:25.053Z,80.10
2018-12-13T03:36:52.811Z,81.00
2018-12-13T03:39:20.241Z,80.90
2018-12-13T03:41:47.706Z,81.30
2018-12-13T03:44:15.171Z,81.50
2018-12-13T03:46:42.620Z,81.50
2018-12-13T03:49:10.174Z,81.50
2018-12-13T03:51:37.633Z,81.50
2018-12-13T03:54:05.090Z,80.30
2018-12-13T03:56:32.521Z,81.40
2018-12-13T03:59:00.000Z,81.20
2018-12-13T04:01:27.449Z,81.70
2018-12-13T04:03:54.965Z,81.40
2018-12-13T04:06:22.399Z,81.10
2018-12-13T04:08:49.861Z,79.60
2018-12-13T04:11:17.325Z,81.20
2018-12-13T04:13:44.894Z,80.90
2018-12-13T04:16:12.352Z,81.40
2018-12-13T04:18:39.815Z,81.20
2018-12-13T04:21:07.258Z,81.50
2018-12-13T04:23:34.802Z,81.50
2018-12-13T04:26:02.328Z,81.00
2018-12-13T04:28:29.778Z,80.10
2018-12-13T04:30:57.243Z,81.40
2018-12-13T04:33:24.706Z,80.60
2018-12-13T04:35:52.192Z,81.50
2018-12-13T04:38:19.655Z,80.40
2018-12-13T04:40:47.117Z,81.10
2018-12-13T04:43:14.616Z,81.10
2018-12-13T04:45:42.050Z,81.00
2018-12-13T04:48:09.491Z,82.10
2018-12-13T04:50:36.984Z,81.40
2018-12-13T04:53:04.419Z,80.80
2018-12-13T04:55:31.869Z,80.10
2018-12-13T04:57:59.305Z,81.30
2018-12-13T05:00:26.812Z,81.70
2018-12-13T05:02:54.270Z,81.40
2018-12-13T05:05:21.738Z,81.30
2018-12-13T05:07:49.196Z,81.70
2018-12-13T05:13:26.016Z,81.80
2018-12-13T05:15:53.476Z,81.60
2018-12-13T05:18:20.953Z,81.80
2018-12-13T05:20:48.487Z,81.60
2018-12-13T05:23:15.932Z,81.40
2018-12-13T05:25:43.399Z,81.30
2018-12-13T05:28:11.591Z,81.40
2018-12-13T05:30:39.071Z,81.30
2018-12-13T05:33:06.652Z,81.10
2018-12-13T05:35:34.118Z,81.40
2018-12-13T05:38:01.585Z,81.00
2018-12-13T05:40:29.108Z,81.10
2018-12-13T05:42:56.552Z,81.10
2018-12-13T05:45:24.020Z,81.40
2018-12-13T05:47:51.475Z,81.30
2018-12-13T05:50:19.025Z,81.40
2018-12-13T05:52:47.401Z,81.50
2018-12-13T05:55:15.100Z,81.20
2018-12-13T05:57:42.552Z,81.20
2018-12-13T06:00:10.124Z,81.40
2018-12-13T06:02:37.614Z,81.60
2018-12-13T06:05:06.185Z,81.70
2018-12-13T06:07:33.766Z,81.50
2018-12-13T06:10:01.330Z,80.90
2018-12-13T06:12:29.003Z,81.30
2018-12-13T06:14:56.575Z,81.20
2018-12-13T06:17:24.098Z,81.20
2018-12-13T06:19:51.886Z,81.30
2018-12-13T06:22:19.336Z,81.30
2018-12-13T06:24:46.876Z,81.10
2018-12-13T06:27:14.379Z,81.20
2018-12-13T06:29:48.632Z,81.00
2018-12-13T06:32:11.375Z,81.40
2018-12-13T06:34:39.019Z,81.30
2018-12-13T06:37:06.451Z,81.30
2018-12-13T06:39:34.011Z,81.30
2018-12-13T06:42:04.063Z,81.30
2018-12-13T06:44:31.628Z,81.40
2018-12-13T06:46:59.095Z,81.40
2018-12-13T06:49:26.927Z,81.30
2018-12-13T06:51:54.602Z,80.10
2018-12-13T06:54:22.229Z,79.30
2018-12-13T06:56:49.673Z,79.80
2018-12-13T06:59:17.134Z,80.10
2018-12-13T07:01:44.670Z,80.60
2018-12-13T07:04:12.256Z,80.90
2018-12-13T07:06:39.989Z,81.20
2018-12-13T07:09:07.595Z,81.30
2018-12-13T07:11:35.140Z,81.60
2018-12-13T07:14:02.688Z,81.30
2018-12-13T07:16:30.154Z,81.50
2018-12-13T07:18:58.172Z,81.80
2018-12-13T07:21:25.835Z,81.80
2018-12-13T07:23:53.304Z,81.90
2018-12-13T07:26:20.869Z,82.00
2018-12-13T07:28:48.523Z,82.30
2018-12-13T07:31:15.977Z,83.00
2018-12-13T07:33:43.478Z,82.10
2018-12-13T07:36:11.030Z,82.40
2018-12-13T07:38:40.989Z,81.80
2018-12-13T07:41:08.534Z,82.00
2018-12-13T07:43:36.554Z,82.50
2018-12-13T07:46:04.301Z,81.80
2018-12-13T07:48:31.878Z,82.60
2018-12-13T07:50:59.820Z,81.60
2018-12-13T07:53:27.288Z,81.90
2018-12-13T07:55:54.752Z,82.00
2018-12-13T07:58:22.986Z,82.40
2018-12-13T08:00:50.833Z,82.10
2018-12-13T08:03:18.508Z,82.00
2018-12-13T08:05:46.235Z,82.30
2018-12-13T08:08:20.640Z,82.30
2018-12-13T08:10:43.740Z,82.40
2018-12-13T08:13:11.577Z,81.60
2018-12-13T08:15:39.796Z,82.30
2018-12-13T08:18:08.404Z,82.30
2018-12-13T08:20:35.889Z,81.60
2018-12-13T08:23:04.187Z,82.20
2018-12-13T08:25:33.728Z,82.20
2018-12-13T08:28:02.009Z,82.60
2018-12-13T08:30:29.676Z,82.60
2018-12-13T08:32:57.532Z,82.10
2018-12-13T08:35:25.595Z,82.30
2018-12-13T08:37:53.317Z,82.00
2018-12-13T08:40:21.139Z,82.20
2018-12-13T08:42:48.658Z,82.50
2018-12-13T08:45:16.116Z,82.30
2018-12-13T08:47:43.564Z,81.90
2018-12-13T08:50:11.080Z,81.90
2018-12-13T08:52:38.543Z,82.00
2018-12-13T08:55:06.123Z,82.20
2018-12-13T08:57:33.593Z,82.00
2018-12-13T09:00:01.050Z,81.60
2018-12-13T09:02:28.511Z,81.70
2018-12-13T09:04:55.959Z,81.40
2018-12-13T09:07:23.528Z,81.60
2018-12-13T09:09:50.987Z,80.90
2018-12-13T09:12:18.440Z,81.00
2018-12-13T09:14:45.956Z,81.40
2018-12-13T09:17:13.409Z,81.50
2018-12-13T09:19:40.932Z,80.70
2018-12-13T09:22:08.399Z,79.20
2018-12-13T09:24:35.846Z,80.60
2018-12-13T09:27:03.895Z,81.10
2018-12-13T09:29:31.950Z,81.00
2018-12-13T09:31:59.404Z,80.50
2018-12-13T09:34:26.879Z,80.90
2018-12-13T09:36:54.345Z,80.60
2018-12-13T09:39:21.912Z,80.60
2018-12-13T09:41:49.373Z,80.70
2018-12-13T09:44:16.839Z,80.90
2018-12-13T09:46:44.393Z,80.50
2018-12-13T09:49:11.858Z,79.70
2018-12-13T09:51:39.368Z,80.20
2018-12-13T09:54:06.829Z,78.80
2018-12-13T09:56:34.285Z,80.40
2018-12-13T09:59:01.832Z,78.20
2018-12-13T10:01:29.262Z,79.20
2018-12-13T10:03:56.735Z,80.50
2018-12-13T10:06:24.232Z,80.30
2018-12-13T10:08:51.732Z,80.30
2018-12-13T10:11:19.283Z,80.40
2018-12-13T10:13:46.736Z,80.20
2018-12-13T10:16:14.186Z,80.10
2018-12-13T10:18:41.643Z,79.20
2018-12-13T10:21:09.077Z,79.80
2018-12-13T10:23:36.594Z,79.10
2018-12-13T10:26:04.089Z,80.10
2018-12-13T10:28:31.541Z,80.20
2018-12-13T10:30:58.993Z,80.20
2018-12-13T10:33:26.451Z,80.30
2018-12-13T10:35:53.908Z,79.60
2018-12-13T10:38:21.346Z,80.30
2018-12-13T10:40:48.806Z,79.70
2018-12-13T10:43:16.251Z,79.30
2018-12-13T10:45:43.707Z,80.10
2018-12-13T10:48:11.193Z,80.20
2018-12-13T10:50:38.664Z,79.80
2018-12-13T10:53:06.287Z,79.30
2018-12-13T10:55:33.721Z,79.80
2018-12-13T10:58:01.181Z,80.00
2018-12-13T11:00:34.198Z,79.70
2018-12-13T11:03:26.176Z,79.20
2018-12-13T11:05:53.667Z,79.70
2018-12-13T11:08:21.109Z,79.80
2018-12-13T11:10:48.638Z,79.10
2018-12-13T11:13:16.156Z,78.60
2018-12-13T11:15:43.764Z,78.40
2018-12-13T11:18:11.356Z,79.10
2018-12-13T11:20:38.869Z,78.20
2018-12-13T11:23:06.349Z,78.90
2018-12-13T11:25:33.804Z,78.50
2018-12-13T11:28:14.172Z,80.00
2018-12-13T11:30:41.682Z,80.00
2018-12-13T11:33:09.196Z,79.80
2018-12-13T11:35:36.652Z,79.20
2018-12-13T11:38:04.124Z,79.40
2018-12-13T11:40:32.437Z,79.70
2018-12-13T11:42:59.961Z,79.50
2018-12-13T11:45:27.509Z,78.80
2018-12-13T11:47:55.014Z,80.10
2018-12-13T11:50:22.481Z,79.30
2018-12-13T11:52:49.967Z,79.40
2018-12-13T11:55:26.081Z,79.20
2018-12-13T11:57:53.632Z,79.60
2018-12-13T12:00:21.089Z,79.80
2018-12-13T12:02:48.554Z,80.10
2018-12-13T12:05:16.028Z,79.80
2018-12-13T12:07:43.484Z,79.70
2018-12-13T12:10:11.014Z,79.00
2018-12-13T12:12:38.479Z,79.70
2018-12-13T12:15:07.143Z,80.20
2018-12-13T12:17:34.722Z,80.70
2018-12-13T12:20:03.172Z,79.80
2018-12-13T12:22:30.685Z,79.80
2018-12-13T12:24:58.155Z,79.90
2018-12-13T12:27:25.667Z,80.10
2018-12-13T12:29:53.190Z,79.70
2018-12-13T12:32:20.684Z,80.10
2018-12-13T12:34:48.128Z,79.60
2018-12-13T12:37:15.611Z,79.40
2018-12-13T12:39:43.115Z,80.10
2018-12-13T12:42:10.639Z,80.50
2018-12-13T12:44:40.044Z,80.00
2018-12-13T12:47:07.568Z,79.70
2018-12-13T12:49:35.043Z,79.60
2018-12-13T12:52:02.500Z,78.90
2018-12-13T12:54:29.948Z,80.40
2018-12-13T12:56:57.408Z,80.40
2018-12-13T12:59:24.889Z,80.70
2018-12-13T13:01:52.351Z,80.80
2018-12-13T13:04:19.799Z,80.60
2018-12-13T13:06:47.963Z,81.00
2018-12-13T13:09:15.411Z,80.60
2018-12-13T13:11:42.866Z,79.90
2018-12-13T13:14:10.337Z,80.90
2018-12-13T13:16:37.812Z,80.90
2018-12-13T13:19:05.253Z,80.80
2018-12-13T13:21:32.707Z,80.50
2018-12-13T13:24:00.168Z,79.90
2018-12-13T13:26:27.689Z,80.60
2018-12-13T13:28:55.152Z,80.90
2018-12-13T13:31:22.632Z,80.70
2018-12-13T13:33:50.109Z,79.60
2018-12-13T13:36:17.622Z,80.80
2018-12-13T13:38:45.095Z,80.70
2018-12-13T13:41:12.571Z,80.80
2018-12-13T13:43:40.037Z,80.90
2018-12-13T13:46:07.491Z,81.00
2018-12-13T13:48:34.961Z,81.00
2018-12-13T13:51:02.420Z,80.00
2018-12-13T13:53:29.947Z,80.60
2018-12-13T13:55:57.391Z,80.70
2018-12-13T13:58:24.862Z,80.50
2018-12-13T14:00:52.328Z,80.70
2018-12-13T14:03:19.795Z,80.60
2018-12-13T14:05:47.273Z,80.50
2018-12-13T14:08:14.719Z,80.10
2018-12-13T14:10:42.307Z,79.60
2018-12-13T14:13:09.768Z,80.50
2018-12-13T14:15:37.222Z,79.50
2018-12-13T14:18:04.724Z,80.50
2018-12-13T14:20:32.171Z,79.90
2018-12-13T14:22:59.705Z,80.80
2018-12-13T14:25:27.236Z,80.50
2018-12-13T14:27:54.696Z,80.60
2018-12-13T14:30:22.180Z,80.50
2018-12-13T14:32:49.657Z,80.70
2018-12-13T14:35:17.133Z,80.90
2018-12-13T14:37:44.608Z,80.60
2018-12-13T14:40:12.104Z,80.80
2018-12-13T14:42:40.358Z,80.90
2018-12-13T14:45:07.826Z,81.00
2018-12-13T14:47:35.332Z,81.40
2018-12-13T14:50:03.739Z,81.40
2018-12-13T14:52:31.209Z,79.80
2018-12-13T14:54:58.674Z,81.10
2018-12-13T14:57:26.145Z,81.10
2018-12-13T14:59:53.602Z,81.40
2018-12-13T15:02:21.064Z,81.90
2018-12-13T15:04:48.527Z,82.00
2018-12-13T15:07:15.992Z,81.10
2018-12-13T15:09:43.460Z,81.40
2018-12-13T15:12:10.945Z,81.20
2018-12-13T15:14:38.432Z,81.30
2018-12-13T15:17:06.502Z,81.00
2018-12-13T15:19:33.954Z,81.30
2018-12-13T15:22:01.432Z,81.50
2018-12-13T15:24:28.891Z,80.80
2018-12-13T15:26:56.337Z,81.50
2018-12-13T15:29:23.804Z,81.60
2018-12-13T15:31:51.251Z,81.40
2018-12-13T15:34:18.740Z,81.50
2018-12-13T15:36:46.208Z,81.70
2018-12-13T15:39:13.661Z,81.80
2018-12-13T15:41:41.111Z,82.00
2018-12-13T15:44:08.617Z,81.80
2018-12-13T15:46:36.050Z,81.80
2018-12-13T15:49:03.619Z,81.50
2018-12-13T15:51:31.660Z,81.30
2018-12-13T15:53:59.110Z,81.70
2018-12-13T15:56:26.587Z,81.70
2018-12-13T15:58:54.047Z,81.10
2018-12-13T16:01:21.535Z,81.40
2018-12-13T16:03:49.071Z,81.50
2018-12-13T16:06:16.540Z,81.60
2018-12-13T16:08:44.009Z,81.60
2018-12-13T16:11:11.484Z,81.60
2018-12-13T16:13:38.932Z,81.90
2018-12-13T16:16:06.433Z,81.80
2018-12-13T16:18:33.874Z,81.60
2018-12-13T16:21:01.344Z,81.50
2018-12-13T16:23:28.874Z,81.80
2018-12-13T16:25:56.343Z,82.10
2018-12-13T16:28:23.805Z,82.10
2018-12-13T16:30:51.277Z,81.60
2018-12-13T16:33:18.723Z,81.20
2018-12-13T16:35:46.202Z,81.40
2018-12-13T16:38:13.667Z,81.80
2018-12-13T16:40:41.124Z,82.60
2018-12-13T16:43:08.668Z,81.80
2018-12-13T16:45:36.124Z,81.60
2018-12-13T16:48:03.652Z,81.30
2018-12-13T16:50:31.525Z,81.70
2018-12-13T16:52:59.794Z,81.50
2018-12-13T16:55:27.256Z,81.70
2018-12-13T16:57:54.720Z,81.60
2018-12-13T17:00:22.188Z,81.20
2018-12-13T17:02:49.716Z,81.50
2018-12-13T17:05:17.172Z,80.90
2018-12-13T17:07:44.638Z,81.40
2018-12-13T17:10:16.814Z,81.50
2018-12-13T17:12:41.567Z,81.40
2018-12-13T17:15:09.158Z,81.30
2018-12-13T17:17:36.629Z,82.40
2018-12-13T17:20:04.300Z,81.50
2018-12-13T17:22:31.756Z,81.80
2018-12-13T17:24:59.225Z,81.20
2018-12-13T17:27:26.684Z,81.50
2018-12-13T17:29:54.161Z,81.20
2018-12-13T17:32:21.607Z,81.50
2018-12-13T17:34:49.078Z,81.20
2018-12-13T17:37:16.551Z,81.20
2018-12-13T17:39:44.040Z,81.20
2018-12-13T17:42:11.499Z,80.40
2018-12-13T17:44:38.960Z,80.80
2018-12-13T17:47:06.414Z,80.70
2018-12-13T17:49:33.888Z,81.90
2018-12-13T17:52:01.344Z,81.30
2018-12-13T17:54:28.828Z,80.80
2018-12-13T17:56:56.306Z,81.10
2018-12-13T17:59:24.488Z,81.00
2018-12-13T18:01:51.950Z,80.90
2018-12-13T18:04:19.418Z,81.10
2018-12-13T18:06:47.441Z,80.70
2018-12-13T18:09:15.078Z,80.90
2018-12-13T18:11:42.547Z,80.50
2018-12-13T18:14:10.613Z,81.30
2018-12-13T18:16:43.409Z,80.90
2018-12-13T18:19:07.613Z,80.80
2018-12-13T18:21:35.085Z,80.50
2018-12-13T18:24:02.617Z,80.60
2018-12-13T18:26:30.734Z,79.60
2018-12-13T18:28:58.210Z,81.30
2018-12-13T18:31:25.674Z,81.00
2018-12-13T18:33:53.147Z,80.50
2018-12-13T18:36:20.630Z,80.80
2018-12-13T18:38:48.125Z,80.50
2018-12-13T18:41:15.599Z,81.00
2018-12-13T18:43:43.160Z,80.60
2018-12-13T18:46:10.681Z,81.00
2018-12-13T18:48:38.143Z,81.00
2018-12-13T18:51:05.776Z,80.80
2018-12-13T18:53:33.271Z,80.90
2018-12-13T18:56:00.725Z,81.00
2018-12-13T18:58:28.182Z,80.80
2018-12-13T19:00:55.685Z,79.60
2018-12-13T19:03:23.342Z,80.10
2018-12-13T19:05:50.812Z,80.50
2018-12-13T19:08:18.324Z,80.20
2018-12-13T19:10:45.929Z,80.60
2018-12-13T19:13:14.079Z,80.60
2018-12-13T19:15:41.562Z,80.30
2018-12-13T19:18:09.048Z,81.00
2018-12-13T19:20:36.508Z,80.50
2018-12-13T19:23:03.986Z,80.00
2018-12-13T19:25:31.470Z,80.70
2018-12-13T19:27:58.926Z,79.60
2018-12-13T19:30:26.449Z,80.50
2018-12-13T19:32:53.936Z,80.40
2018-12-13T19:35:21.409Z,80.10
2018-12-13T19:37:48.921Z,79.00
2018-12-13T19:40:16.395Z,79.30
2018-12-13T19:42:43.947Z,80.10
2018-12-13T19:45:11.423Z,80.30
2018-12-13T19:47:38.891Z,80.50
2018-12-13T19:50:06.670Z,80.30
2018-12-13T19:52:34.204Z,77.70
2018-12-13T19:55:01.675Z,76.60
2018-12-13T19:57:29.155Z,76.10
2018-12-13T19:59:56.635Z,76.80
2018-12-13T20:02:24.083Z,77.00
2018-12-13T20:04:51.557Z,77.00
2018-12-13T20:07:19.005Z,77.40
2018-12-13T20:09:46.508Z,77.00
2018-12-13T20:12:14.020Z,76.90
2018-12-13T20:14:41.522Z,77.40
2018-12-13T20:17:09.021Z,77.60
2018-12-13T20:19:36.468Z,77.90
2018-12-13T20:22:03.982Z,77.90
2018-12-13T20:24:31.440Z,77.90
2018-12-13T20:26:58.910Z,77.20
2018-12-13T20:29:26.384Z,78.00
2018-12-13T20:31:53.863Z,78.00
2018-12-13T20:34:21.387Z,77.80
2018-12-13T20:36:48.844Z,77.90
2018-12-13T20:39:16.316Z,77.90
2018-12-13T20:41:43.800Z,77.80
2018-12-13T20:44:11.420Z,78.10
2018-12-13T20:46:38.871Z,78.10
2018-12-13T20:49:06.340Z,78.80
2018-12-13T20:51:34.354Z,77.30
2018-12-13T20:54:01.932Z,77.90
2018-12-13T20:56:30.754Z,78.10
2018-12-13T20:58:58.205Z,77.90
2018-12-13T21:01:25.671Z,78.20
2018-12-13T21:03:53.365Z,78.20
2018-12-13T21:06:20.836Z,78.30
2018-12-13T21:08:48.292Z,76.50
2018-12-13T21:11:15.751Z,78.00
2018-12-13T21:13:43.213Z,78.00
2018-12-13T21:16:10.680Z,77.60
2018-12-13T21:18:38.129Z,78.10
2018-12-13T21:21:05.644Z,78.40
2018-12-13T21:23:33.122Z,78.40
2018-12-13T21:26:00.588Z,78.40
2018-12-13T21:28:28.047Z,76.90
2018-12-13T21:30:55.520Z,77.70
2018-12-13T21:33:22.968Z,78.20
2018-12-13T21:35:50.440Z,78.30
2018-12-13T21:38:17.913Z,78.30
2018-12-13T21:40:45.420Z,78.40
2018-12-13T21:43:13.200Z,78.50
2018-12-13T21:45:41.391Z,78.50
2018-12-13T21:48:09.278Z,78.40
2018-12-13T21:50:37.317Z,78.00
2018-12-13T21:53:04.776Z,77.80
2018-12-13T21:55:32.230Z,78.10
2018-12-13T21:57:59.727Z,78.30
2018-12-13T22:00:27.269Z,78.40
2018-12-13T22:02:54.727Z,77.80
2018-12-13T22:05:22.244Z,78.20
2018-12-13T22:07:49.705Z,78.20
2018-12-13T22:10:17.176Z,78.10
2018-12-13T22:12:44.649Z,77.70
2018-12-13T22:15:12.111Z,77.90
2018-12-13T22:17:39.585Z,78.00
2018-12-13T22:20:07.152Z,78.10
2018-12-13T22:22:34.636Z,78.40
2018-12-13T22:25:02.097Z,78.40
2018-12-13T22:27:29.599Z,77.80
2018-12-13T22:29:57.661Z,77.50
2018-12-13T22:32:25.132Z,78.30
2018-12-13T22:34:52.652Z,78.00
2018-12-13T22:37:20.402Z,78.20
2018-12-13T22:39:47.911Z,77.90
2018-12-13T22:42:15.416Z,77.40
2018-12-13T22:44:42.940Z,78.10
2018-12-13T22:49:44.209Z,78.20
2018-12-13T22:52:11.672Z,76.70
2018-12-13T22:54:39.135Z,77.70
2018-12-13T22:57:06.592Z,78.20
2018-12-13T22:59:34.068Z,78.00
2018-12-13T23:02:01.593Z,77.70
2018-12-13T23:04:29.044Z,78.10
2018-12-13T23:06:56.514Z,78.20
2018-12-13T23:09:23.965Z,77.90
2018-12-13T23:11:51.432Z,78.00
2018-12-13T23:14:18.908Z,78.00
2018-12-13T23:16:46.537Z,78.30
2018-12-13T23:19:13.996Z,78.30
2018-12-13T23:21:41.467Z,78.20
2018-12-13T23:24:08.930Z,78.30
2018-12-13T23:26:36.387Z,78.20
2018-12-13T23:29:03.899Z,79.00
2018-12-13T23:31:31.372Z,78.30
2018-12-13T23:33:58.816Z,78.20
2018-12-13T23:36:26.288Z,78.20
2018-12-13T23:38:53.772Z,78.20
2018-12-13T23:41:21.251Z,78.10
2018-12-13T23:43:48.722Z,77.30
2018-12-13T23:46:16.184Z,78.70
2018-12-13T23:48:43.656Z,78.00
2018-12-13T23:51:11.112Z,78.10
2018-12-13T23:53:38.589Z,78.10
2018-12-13T23:56:06.217Z,77.90
2018-12-13T23:58:33.921Z,78.00
